createdAt,value
2023-03-02T00:00:46.217Z,98
2023-03-02T00:01:53.517Z,98
2023-03-02T00:03:09.805Z,98
2023-03-02T00:04:17.022Z,98
2023-03-02T00:05:25.981Z,102
2023-03-02T00:06:33.651Z,101
2023-03-02T00:07:43.038Z,101
2023-03-02T00:08:50.010Z,101
2023-03-02T00:10:00.951Z,104
2023-03-02T00:11:08.115Z,104
2023-03-02T00:12:18.105Z,111
2023-03-02T00:13:27.675Z,108
2023-03-02T00:14:35.364Z,110
2023-03-02T00:15:45.180Z,113
2023-03-02T00:16:52.441Z,118
2023-03-02T00:17:59.694Z,130
2023-03-02T00:19:09.234Z,136
2023-03-02T00:20:16.136Z,129
2023-03-02T00:21:25.785Z,132
2023-03-02T00:22:32.641Z,125
2023-03-02T00:23:43.567Z,128
2023-03-02T00:24:51.264Z,125
2023-03-02T00:26:01.081Z,131
2023-03-02T00:27:08.154Z,134
2023-03-02T00:28:15.934Z,137
2023-03-02T00:29:23.181Z,125
2023-03-02T00:30:34.032Z,129
2023-03-02T00:31:44.288Z,116
2023-03-02T00:32:51.460Z,111
2023-03-02T00:33:58.793Z,113
2023-03-02T00:35:05.711Z,114
2023-03-02T00:36:15.487Z,107
2023-03-02T00:37:22.437Z,104
2023-03-02T00:38:29.335Z,109
2023-03-02T00:39:36.428Z,109
2023-03-02T00:40:46.604Z,105
2023-03-02T00:41:53.709Z,104
2023-03-02T00:43:00.628Z,108
2023-03-02T00:44:07.649Z,103
2023-03-02T00:45:14.592Z,95
2023-03-02T00:46:21.738Z,100
2023-03-02T00:47:28.848Z,98
2023-03-02T00:48:38.783Z,94
2023-03-02T00:49:49.421Z,85
2023-03-02T00:50:59.510Z,88
2023-03-02T00:52:06.660Z,89
2023-03-02T00:53:13.620Z,91
2023-03-02T00:54:23.491Z,88
2023-03-02T00:55:30.608Z,90
2023-03-02T00:56:40.803Z,95
2023-03-02T00:57:47.728Z,93
2023-03-02T00:58:57.738Z,93
2023-03-02T01:00:08.071Z,92
2023-03-02T01:01:18.811Z,96
2023-03-02T01:02:25.961Z,91
2023-03-02T01:03:33.022Z,96
2023-03-02T01:04:42.472Z,93
2023-03-02T01:05:49.374Z,94
2023-03-02T01:06:56.308Z,92
2023-03-02T01:08:03.202Z,91
2023-03-02T01:09:10.239Z,93
2023-03-02T01:10:17.484Z,84
2023-03-02T01:11:27.416Z,86
2023-03-02T01:12:38.161Z,90
2023-03-02T01:13:45.073Z,90
2023-03-02T01:14:52.683Z,89
2023-03-02T01:15:59.742Z,83
2023-03-02T01:17:06.754Z,87
2023-03-02T01:18:13.696Z,88
2023-03-02T01:19:24.753Z,82
2023-03-02T01:20:31.734Z,89
2023-03-02T01:21:38.554Z,89
2023-03-02T01:22:45.790Z,83
2023-03-02T01:23:52.839Z,84
2023-03-02T01:25:00.146Z,85
2023-03-02T01:26:07.171Z,87
2023-03-02T01:27:14.095Z,85
2023-03-02T01:28:21.057Z,86
2023-03-02T01:29:27.940Z,87
2023-03-02T01:30:34.863Z,87
2023-03-02T01:31:44.586Z,89
2023-03-02T01:32:51.988Z,86
2023-03-02T01:34:02.060Z,86
2023-03-02T01:35:09.356Z,86
2023-03-02T01:36:16.359Z,81
2023-03-02T01:37:23.344Z,85
2023-03-02T01:38:30.294Z,83
2023-03-02T01:39:37.076Z,84
2023-03-02T01:40:44.734Z,80
2023-03-02T01:41:51.687Z,83
2023-03-02T01:42:58.774Z,83
2023-03-02T01:44:05.760Z,87
2023-03-02T01:45:22.841Z,82
2023-03-02T01:46:39.827Z,83
2023-03-02T01:47:46.770Z,81
2023-03-02T01:48:53.635Z,81
2023-03-02T01:50:05.892Z,83
2023-03-02T01:51:20.910Z,84
2023-03-02T01:52:27.871Z,80
2023-03-02T01:53:38.737Z,84
2023-03-02T01:54:45.558Z,82
2023-03-02T01:55:53.123Z,86
2023-03-02T01:57:01.671Z,83
2023-03-02T01:58:08.943Z,86
2023-03-02T01:59:15.893Z,88
2023-03-02T02:00:22.770Z,89
2023-03-02T02:01:29.898Z,86
2023-03-02T02:02:36.906Z,86
2023-03-02T02:03:43.784Z,89
2023-03-02T02:04:50.629Z,90
2023-03-02T02:05:57.530Z,86
2023-03-02T02:07:07.163Z,89
2023-03-02T02:08:15.242Z,90
2023-03-02T02:09:22.841Z,87
2023-03-02T02:10:29.766Z,92
2023-03-02T02:11:39.268Z,90
2023-03-02T02:12:46.157Z,90
2023-03-02T02:13:53.033Z,92
2023-03-02T02:14:59.905Z,95
2023-03-02T02:16:07.005Z,92
2023-03-02T02:17:13.701Z,92
2023-03-02T02:18:20.564Z,95
2023-03-02T02:19:32.165Z,87
2023-03-02T02:20:49.168Z,87
2023-03-02T02:21:57.034Z,84
2023-03-02T02:23:03.984Z,85
2023-03-02T02:24:18.362Z,84
2023-03-02T02:25:25.244Z,78
2023-03-02T02:26:42.416Z,78
2023-03-02T02:27:52.477Z,80
2023-03-02T02:29:02.345Z,79
2023-03-02T02:30:12.774Z,77
2023-03-02T02:31:23.001Z,78
2023-03-02T02:32:34.210Z,77
2023-03-02T02:33:41.141Z,79
2023-03-02T02:34:49.416Z,78
2023-03-02T02:36:02.193Z,78
2023-03-02T02:37:09.150Z,82
2023-03-02T02:38:19.177Z,77
2023-03-02T02:39:26.212Z,81
2023-03-02T02:40:33.197Z,82
2023-03-02T02:41:47.765Z,82
2023-03-02T02:42:55.729Z,85
2023-03-02T02:44:02.574Z,86
2023-03-02T02:45:10.057Z,84
2023-03-02T02:46:27.141Z,89
2023-03-02T02:47:33.974Z,86
2023-03-02T02:48:42.422Z,87
2023-03-02T02:49:49.453Z,87
2023-03-02T02:50:56.369Z,82
2023-03-02T02:52:04.246Z,83
2023-03-02T02:53:12.988Z,81
2023-03-02T02:54:25.087Z,80
2023-03-02T02:55:32.016Z,74
2023-03-02T02:56:39.554Z,80
2023-03-02T02:57:49.285Z,77
2023-03-02T02:58:56.313Z,77
2023-03-02T03:00:08.876Z,77
2023-03-02T03:01:16.161Z,77
2023-03-02T03:02:23.577Z,77
2023-03-02T03:03:30.663Z,76
2023-03-02T03:04:38.566Z,78
2023-03-02T03:05:45.475Z,80
2023-03-02T03:07:05.134Z,78
2023-03-02T03:08:12.517Z,76
2023-03-02T03:09:32.400Z,80
2023-03-02T03:10:39.337Z,77
2023-03-02T03:11:49.268Z,82
2023-03-02T03:13:02.006Z,76
2023-03-02T03:14:11.753Z,78
2023-03-02T03:15:19.237Z,81
2023-03-02T03:16:26.625Z,79
2023-03-02T03:17:33.548Z,77
2023-03-02T03:18:40.464Z,78
2023-03-02T03:19:53.093Z,79
2023-03-02T03:21:00.279Z,74
2023-03-02T03:22:07.245Z,79
2023-03-02T03:23:14.419Z,79
2023-03-02T03:24:21.370Z,82
2023-03-02T03:25:28.287Z,79
2023-03-02T03:26:37.899Z,83
2023-03-02T03:27:44.786Z,83
2023-03-02T03:28:52.240Z,83
2023-03-02T03:29:59.470Z,82
2023-03-02T03:31:06.620Z,83
2023-03-02T03:32:17.723Z,81
2023-03-02T03:33:26.130Z,82
2023-03-02T03:34:33.069Z,85
2023-03-02T03:35:42.593Z,84
2023-03-02T03:36:52.277Z,83
2023-03-02T03:38:02.444Z,82
2023-03-02T03:39:09.540Z,84
2023-03-02T03:40:16.651Z,84
2023-03-02T03:41:24.550Z,84
2023-03-02T03:42:31.531Z,83
2023-03-02T03:43:38.655Z,83
2023-03-02T03:44:45.542Z,83
2023-03-02T03:45:52.485Z,83
2023-03-02T03:47:03.627Z,82
2023-03-02T03:48:10.598Z,82
2023-03-02T03:49:17.561Z,84
2023-03-02T03:50:24.562Z,84
2023-03-02T03:51:31.559Z,84
2023-03-02T03:52:38.452Z,84
2023-03-02T03:53:48.218Z,85
2023-03-02T03:54:55.493Z,83
2023-03-02T03:56:02.427Z,82
2023-03-02T03:57:09.606Z,84
2023-03-02T03:58:16.705Z,84
2023-03-02T03:59:28.089Z,86
2023-03-02T04:00:35.126Z,85
2023-03-02T04:01:42.163Z,85
2023-03-02T04:02:49.497Z,85
2023-03-02T04:03:57.069Z,90
2023-03-02T04:05:06.915Z,90
2023-03-02T04:06:13.852Z,90
2023-03-02T04:07:20.705Z,87
2023-03-02T04:08:28.354Z,89
2023-03-02T04:09:35.277Z,91
2023-03-02T04:10:42.333Z,86
2023-03-02T04:11:52.728Z,89
2023-03-02T04:12:59.680Z,87
2023-03-02T04:14:09.346Z,89
2023-03-02T04:15:16.282Z,84
2023-03-02T04:16:23.388Z,88
2023-03-02T04:17:30.470Z,85
2023-03-02T04:18:39.252Z,87
2023-03-02T04:19:46.201Z,90
2023-03-02T04:20:53.162Z,93
2023-03-02T04:22:04.382Z,96
2023-03-02T04:23:11.585Z,94
2023-03-02T04:24:19.324Z,104
2023-03-02T04:25:26.387Z,101
2023-03-02T04:26:33.705Z,99
2023-03-02T04:27:40.345Z,96
2023-03-02T04:28:50.290Z,99
2023-03-02T04:29:57.692Z,104
2023-03-02T04:31:05.000Z,100
2023-03-02T04:32:12.022Z,105
2023-03-02T04:33:18.979Z,105
2023-03-02T04:34:29.068Z,101
2023-03-02T04:35:36.316Z,104
2023-03-02T04:36:43.212Z,108
2023-03-02T04:37:50.549Z,109
2023-03-02T04:38:57.483Z,111
2023-03-02T04:40:07.333Z,105
2023-03-02T04:41:14.624Z,105
2023-03-02T04:42:21.506Z,109
2023-03-02T04:43:29.915Z,103
2023-03-02T04:44:36.874Z,105
2023-03-02T04:45:43.813Z,106
2023-03-02T04:46:52.914Z,112
2023-03-02T04:47:59.852Z,113
2023-03-02T04:49:06.969Z,116
2023-03-02T04:50:14.048Z,116
2023-03-02T04:51:21.170Z,110
2023-03-02T04:52:28.722Z,109
2023-03-02T04:53:37.638Z,111
2023-03-02T04:54:44.735Z,111
2023-03-02T04:55:51.902Z,109
2023-03-02T04:57:01.483Z,107
2023-03-02T04:58:08.471Z,103
2023-03-02T04:59:15.471Z,101
2023-03-02T05:00:23.158Z,103
2023-03-02T05:01:30.685Z,98
2023-03-02T05:02:40.664Z,100
2023-03-02T05:03:51.937Z,102
2023-03-02T05:05:01.562Z,103
2023-03-02T05:06:08.570Z,104
2023-03-02T05:07:16.154Z,104
2023-03-02T05:08:24.811Z,103
2023-03-02T05:09:33.721Z,100
2023-03-02T05:10:40.606Z,100
2023-03-02T05:11:47.584Z,104
2023-03-02T05:12:57.398Z,100
2023-03-02T05:14:07.337Z,100
2023-03-02T05:15:14.536Z,101
2023-03-02T05:16:21.872Z,101
2023-03-02T05:17:28.807Z,102
2023-03-02T05:18:35.858Z,101
2023-03-02T05:19:45.464Z,105
2023-03-02T05:20:52.882Z,106
2023-03-02T05:21:59.949Z,106
2023-03-02T05:23:07.042Z,115
2023-03-02T05:24:13.966Z,115
2023-03-02T05:25:20.955Z,122
2023-03-02T05:26:28.072Z,116
2023-03-02T05:27:35.162Z,123
2023-03-02T05:28:44.297Z,121
2023-03-02T05:29:51.213Z,120
2023-03-02T05:30:58.162Z,110
2023-03-02T05:32:05.108Z,120
2023-03-02T05:33:12.137Z,120
2023-03-02T05:34:19.187Z,125
2023-03-02T05:35:26.219Z,112
2023-03-02T05:36:37.916Z,121
2023-03-02T05:37:49.575Z,115
2023-03-02T05:38:59.176Z,112
2023-03-02T05:40:06.725Z,117
2023-03-02T05:41:17.666Z,116
2023-03-02T05:42:27.473Z,109
2023-03-02T05:43:34.534Z,110
2023-03-02T05:44:41.927Z,110
2023-03-02T05:45:51.688Z,108
2023-03-02T05:46:59.752Z,108
2023-03-02T05:48:07.644Z,108
2023-03-02T05:49:20.192Z,109
2023-03-02T05:50:27.107Z,107
2023-03-02T05:51:34.045Z,109
2023-03-02T05:52:40.946Z,105
2023-03-02T05:53:47.811Z,107
2023-03-02T05:54:54.781Z,110
2023-03-02T05:56:04.738Z,104
2023-03-02T05:57:13.634Z,108
2023-03-02T05:58:20.677Z,112
2023-03-02T05:59:30.597Z,109
2023-03-02T06:00:37.538Z,109
2023-03-02T06:01:44.406Z,118
2023-03-02T06:02:51.399Z,115
2023-03-02T06:03:58.317Z,122
2023-03-02T06:05:05.157Z,123
2023-03-02T06:06:14.962Z,123
2023-03-02T06:07:21.849Z,121
2023-03-02T06:08:31.126Z,118
2023-03-02T06:09:38.908Z,119
2023-03-02T06:10:45.842Z,124
2023-03-02T06:11:52.659Z,117
2023-03-02T06:12:59.616Z,118
2023-03-02T06:14:07.340Z,119
2023-03-02T06:15:14.207Z,117
2023-03-02T06:16:21.262Z,126
2023-03-02T06:17:28.013Z,142
2023-03-02T06:18:35.183Z,135
2023-03-02T06:19:42.912Z,136
2023-03-02T06:20:49.868Z,127
2023-03-02T06:21:56.751Z,129
2023-03-02T06:23:03.525Z,127
2023-03-02T06:24:11.604Z,120
2023-03-02T06:25:22.799Z,121
2023-03-02T06:26:29.730Z,117
2023-03-02T06:27:37.640Z,114
2023-03-02T06:28:52.408Z,116
2023-03-02T06:29:55.626Z,119
2023-03-02T06:31:05.699Z,115
2023-03-02T06:32:13.400Z,116
2023-03-02T06:33:20.246Z,113
2023-03-02T06:34:27.177Z,120
2023-03-02T06:35:34.127Z,115
2023-03-02T06:36:40.891Z,113
2023-03-02T06:37:47.826Z,121
2023-03-02T06:38:54.768Z,122
2023-03-02T06:40:01.776Z,123
2023-03-02T06:41:08.993Z,125
2023-03-02T06:42:15.833Z,118
2023-03-02T06:43:23.390Z,121
2023-03-02T06:44:30.441Z,127
2023-03-02T06:45:35.645Z,127
2023-03-02T06:46:47.437Z,126
2023-03-02T06:47:54.387Z,126
2023-03-02T06:49:04.098Z,121
2023-03-02T06:50:11.662Z,118
2023-03-02T06:51:20.218Z,118
2023-03-02T06:52:27.206Z,121
2023-03-02T06:53:34.090Z,122
2023-03-02T06:54:40.944Z,124
2023-03-02T06:55:47.827Z,117
2023-03-02T06:56:57.355Z,115
2023-03-02T06:58:04.296Z,111
2023-03-02T06:59:11.491Z,105
2023-03-02T07:00:18.487Z,105
2023-03-02T07:01:29.562Z,103
2023-03-02T07:02:38.485Z,90
2023-03-02T07:03:45.351Z,95
2023-03-02T07:04:52.998Z,90
2023-03-02T07:06:00.308Z,90
2023-03-02T07:07:07.363Z,88
2023-03-02T07:08:16.075Z,91
2023-03-02T07:09:22.359Z,90
2023-03-02T07:10:30.044Z,97
2023-03-02T07:11:40.923Z,91
2023-03-02T07:12:49.821Z,95
2023-03-02T07:14:01.387Z,94
2023-03-02T07:15:12.434Z,96
2023-03-02T07:16:23.032Z,96
2023-03-02T07:17:31.236Z,96
2023-03-02T07:18:39.625Z,92
2023-03-02T07:19:46.594Z,93
2023-03-02T07:20:54.782Z,95
2023-03-02T07:22:04.183Z,97
2023-03-02T07:23:11.206Z,101
2023-03-02T07:24:18.869Z,99
2023-03-02T07:25:26.011Z,99
2023-03-02T07:26:33.126Z,97
2023-03-02T07:27:39.961Z,94
2023-03-02T07:28:49.871Z,97
2023-03-02T07:29:56.667Z,97
2023-03-02T07:31:03.654Z,98
2023-03-02T07:32:12.425Z,96
2023-03-02T07:33:17.591Z,98
2023-03-02T07:34:25.121Z,96
2023-03-02T07:35:32.170Z,97
2023-03-02T07:36:40.521Z,95
2023-03-02T07:37:47.434Z,96
2023-03-02T07:38:57.230Z,97
2023-03-02T07:40:06.097Z,91
2023-03-02T07:41:16.062Z,92
2023-03-02T07:42:22.948Z,93
2023-03-02T07:43:29.946Z,88
2023-03-02T07:44:37.866Z,88
2023-03-02T07:45:44.730Z,89
2023-03-02T07:46:53.976Z,88
2023-03-02T07:48:01.568Z,84
2023-03-02T07:49:08.619Z,81
2023-03-02T07:50:15.527Z,85
2023-03-02T07:51:25.538Z,85
2023-03-02T07:52:32.787Z,82
2023-03-02T07:53:41.122Z,82
2023-03-02T07:54:48.827Z,84
2023-03-02T07:55:56.004Z,83
2023-03-02T07:57:03.140Z,84
2023-03-02T07:58:18.077Z,79
2023-03-02T07:59:24.960Z,85
2023-03-02T08:00:31.803Z,87
2023-03-02T08:01:38.648Z,85
2023-03-02T08:02:45.549Z,88
2023-03-02T08:03:53.770Z,83
2023-03-02T08:05:00.777Z,83
2023-03-02T08:06:08.007Z,82
2023-03-02T08:07:17.548Z,76
2023-03-02T08:08:24.449Z,77
2023-03-02T08:09:31.418Z,78
2023-03-02T08:10:38.320Z,76
2023-03-02T08:11:45.231Z,74
2023-03-02T08:12:52.074Z,74
2023-03-02T08:13:58.971Z,71
2023-03-02T08:15:05.908Z,76
2023-03-02T08:16:13.270Z,74
2023-03-02T08:17:20.056Z,67
2023-03-02T08:18:29.942Z,67
2023-03-02T08:19:36.844Z,74
2023-03-02T08:20:43.704Z,72
2023-03-02T08:21:50.544Z,69
2023-03-02T08:22:59.367Z,70
2023-03-02T08:24:06.269Z,69
2023-03-02T08:25:13.059Z,70
2023-03-02T08:26:19.898Z,66
2023-03-02T08:27:26.756Z,70
2023-03-02T08:28:35.231Z,70
2023-03-02T08:29:42.132Z,71
2023-03-02T08:30:49.332Z,73
2023-03-02T08:32:03.270Z,74
2023-03-02T08:33:12.268Z,73
2023-03-02T08:34:20.011Z,68
2023-03-02T08:35:27.008Z,71
2023-03-02T08:36:37.411Z,70
2023-03-02T08:37:44.389Z,66
2023-03-02T08:38:52.069Z,68
2023-03-02T08:40:00.753Z,68
2023-03-02T08:41:07.836Z,69
2023-03-02T08:42:14.629Z,64
2023-03-02T08:43:21.371Z,62
2023-03-02T08:44:31.911Z,60
2023-03-02T08:45:38.747Z,61
2023-03-02T08:46:45.499Z,60
2023-03-02T08:47:52.433Z,58
2023-03-02T08:48:59.367Z,57
2023-03-02T08:50:06.255Z,58
2023-03-02T08:51:13.423Z,57
2023-03-02T08:52:25.540Z,60
2023-03-02T08:53:32.936Z,61
2023-03-02T08:54:39.303Z,58
2023-03-02T08:55:47.094Z,56
2023-03-02T08:56:53.953Z,57
2023-03-02T08:58:01.072Z,59
2023-03-02T08:59:07.953Z,55
2023-03-02T09:00:15.761Z,58
2023-03-02T09:01:23.194Z,54
2023-03-02T09:02:30.216Z,56
2023-03-02T09:03:37.084Z,54
2023-03-02T09:04:44.193Z,53
2023-03-02T09:05:52.117Z,53
2023-03-02T09:06:59.027Z,52
2023-03-02T09:08:05.912Z,49
2023-03-02T09:09:12.841Z,50
2023-03-02T09:10:19.789Z,49
2023-03-02T09:11:28.750Z,49
2023-03-02T09:12:35.624Z,44
2023-03-02T09:13:42.529Z,45
2023-03-02T09:14:49.453Z,45
2023-03-02T09:15:58.764Z,46
2023-03-02T09:17:06.620Z,43
2023-03-02T09:18:14.310Z,44
2023-03-02T09:19:21.156Z,43
2023-03-02T09:20:28.005Z,44
2023-03-02T09:21:35.113Z,45
2023-03-02T09:22:42.429Z,45
2023-03-02T09:23:49.296Z,43
2023-03-02T09:25:01.136Z,41
2023-03-02T09:26:08.099Z,42
2023-03-02T09:27:15.159Z,39
2023-03-02T09:28:22.004Z,40
2023-03-02T09:29:29.761Z,39
2023-03-02T09:30:40.579Z,33
2023-03-02T09:31:53.763Z,34
2023-03-02T09:33:00.642Z,32
2023-03-02T09:34:07.312Z,31
2023-03-02T09:35:14.132Z,30
2023-03-02T09:36:20.983Z,28
2023-03-02T09:37:27.868Z,27
2023-03-02T09:38:34.687Z,26
2023-03-02T09:39:43.434Z,21
2023-03-02T09:40:52.092Z,20
2023-03-02T09:42:01.550Z,18
2023-03-02T09:43:08.325Z,18
2023-03-02T09:44:21.049Z,19
2023-03-02T09:45:33.157Z,19
2023-03-02T09:46:48.997Z,18
2023-03-02T09:48:03.895Z,18
2023-03-02T09:49:15.840Z,17
2023-03-02T09:50:25.659Z,17
2023-03-02T09:51:35.660Z,18
2023-03-02T09:52:52.777Z,17
2023-03-02T09:54:11.208Z,17
2023-03-02T09:55:17.960Z,16
2023-03-02T09:56:27.783Z,17
2023-03-02T09:57:34.630Z,17
2023-03-02T09:58:42.311Z,16
2023-03-02T09:59:51.858Z,16
2023-03-02T10:01:03.862Z,17
2023-03-02T10:02:17.383Z,18
2023-03-02T10:03:29.126Z,18
2023-03-02T10:04:39.529Z,18
2023-03-02T10:05:47.317Z,18
2023-03-02T10:06:54.451Z,17
2023-03-02T10:08:01.318Z,17
2023-03-02T10:09:08.284Z,16
2023-03-02T10:10:15.131Z,16
2023-03-02T10:11:32.316Z,17
2023-03-02T10:12:45.368Z,17
2023-03-02T10:14:00.201Z,17
2023-03-02T10:15:16.112Z,16
2023-03-02T10:16:32.265Z,15
2023-03-02T10:17:42.596Z,14
2023-03-02T10:18:54.998Z,14
2023-03-02T10:20:01.409Z,14
2023-03-02T10:21:09.384Z,14
2023-03-02T10:22:21.362Z,11
2023-03-02T10:23:33.786Z,11
2023-03-02T10:24:51.036Z,11
2023-03-02T10:26:05.602Z,11
2023-03-02T10:27:17.932Z,10
2023-03-02T10:28:28.496Z,10
2023-03-02T10:29:35.459Z,10
2023-03-02T10:30:52.796Z,10
2023-03-02T10:31:59.608Z,11
2023-03-02T10:33:16.873Z,11
2023-03-02T10:34:23.706Z,10
2023-03-02T10:35:30.757Z,10
2023-03-02T10:36:37.849Z,11
2023-03-02T10:37:44.625Z,10
2023-03-02T10:38:51.542Z,10
2023-03-02T10:40:01.718Z,10
2023-03-02T10:41:08.922Z,10
2023-03-02T10:42:15.919Z,10
2023-03-02T10:43:30.673Z,12
2023-03-02T10:44:38.362Z,13
2023-03-02T10:45:45.464Z,12
2023-03-02T10:46:52.364Z,13
2023-03-02T10:47:59.307Z,11
2023-03-02T10:49:10.963Z,12
2023-03-02T10:50:26.097Z,12
2023-03-02T10:51:33.072Z,12
2023-03-02T10:52:42.441Z,11
2023-03-02T10:53:46.728Z,12
2023-03-02T10:54:54.637Z,12
2023-03-02T10:56:09.862Z,15
2023-03-02T10:57:22.394Z,15
2023-03-02T10:58:32.134Z,14
2023-03-02T10:59:39.173Z,13
2023-03-02T11:00:49.218Z,13
2023-03-02T11:02:04.786Z,14
2023-03-02T11:03:22.110Z,15
2023-03-02T11:04:28.956Z,13
2023-03-02T11:05:35.885Z,12
2023-03-02T11:06:42.828Z,11
2023-03-02T11:07:49.715Z,11
2023-03-02T11:08:56.558Z,11
2023-03-02T11:10:06.257Z,11
2023-03-02T11:11:21.198Z,12
2023-03-02T11:12:28.070Z,13
2023-03-02T11:13:34.890Z,11
2023-03-02T11:14:41.930Z,13
2023-03-02T11:15:48.678Z,12
2023-03-02T11:16:55.526Z,12
2023-03-02T11:18:02.366Z,11
2023-03-02T11:19:19.513Z,12
2023-03-02T11:20:31.662Z,12
2023-03-02T11:21:41.350Z,12
2023-03-02T11:22:53.391Z,12
2023-03-02T11:24:05.438Z,13
2023-03-02T11:25:20.287Z,11
2023-03-02T11:26:32.350Z,12
2023-03-02T11:27:42.083Z,13
2023-03-02T11:28:48.902Z,13
2023-03-02T11:30:04.017Z,12
2023-03-02T11:31:18.692Z,12
2023-03-02T11:32:25.566Z,12
2023-03-02T11:33:37.615Z,12
2023-03-02T11:34:48.676Z,12
2023-03-02T11:36:03.338Z,11
2023-03-02T11:37:15.894Z,12
2023-03-02T11:38:25.233Z,11
2023-03-02T11:39:32.118Z,12
2023-03-02T11:40:49.297Z,12
2023-03-02T11:42:01.384Z,12
2023-03-02T11:43:08.983Z,11
2023-03-02T11:44:15.851Z,11
2023-03-02T11:45:22.920Z,11
2023-03-02T11:46:29.841Z,11
2023-03-02T11:47:38.083Z,11
2023-03-02T11:48:45.019Z,9
2023-03-02T11:49:51.858Z,9
2023-03-02T11:50:58.673Z,9
2023-03-02T11:52:14.880Z,9
2023-03-02T11:53:20.465Z,10
2023-03-02T11:54:27.300Z,10
2023-03-02T11:55:34.328Z,9
2023-03-02T11:56:42.833Z,10
2023-03-02T11:57:52.298Z,9
2023-03-02T11:59:02.702Z,10
2023-03-02T12:00:09.718Z,10
2023-03-02T12:01:20.717Z,10
2023-03-02T12:02:27.524Z,10
2023-03-02T12:03:34.277Z,10
2023-03-02T12:04:41.100Z,10
2023-03-02T12:05:48.039Z,12
2023-03-02T12:06:54.906Z,11
2023-03-02T12:08:01.766Z,14
2023-03-02T12:09:08.805Z,13
2023-03-02T12:10:26.107Z,13
2023-03-02T12:11:38.681Z,12
2023-03-02T12:12:48.790Z,14
2023-03-02T12:14:00.834Z,17
2023-03-02T12:15:07.663Z,16
2023-03-02T12:16:22.340Z,14
2023-03-02T12:17:37.059Z,12
2023-03-02T12:18:45.427Z,12
2023-03-02T12:19:55.015Z,12
2023-03-02T12:21:09.915Z,13
2023-03-02T12:22:16.817Z,13
2023-03-02T12:23:31.432Z,13
2023-03-02T12:24:38.355Z,13
2023-03-02T12:25:45.240Z,14
2023-03-02T12:26:52.165Z,14
2023-03-02T12:28:07.245Z,14
2023-03-02T12:29:24.496Z,14
2023-03-02T12:30:31.253Z,14
2023-03-02T12:31:38.376Z,13
2023-03-02T12:32:47.961Z,14
2023-03-02T12:34:05.402Z,15
2023-03-02T12:35:22.400Z,14
2023-03-02T12:36:29.209Z,15
2023-03-02T12:37:36.093Z,14
2023-03-02T12:38:50.677Z,16
2023-03-02T12:40:05.533Z,14
2023-03-02T12:41:22.826Z,13
2023-03-02T12:42:32.189Z,14
2023-03-02T12:43:46.792Z,14
2023-03-02T12:44:58.928Z,14
2023-03-02T12:46:16.055Z,14
2023-03-02T12:47:29.474Z,14
2023-03-02T12:48:35.974Z,14
2023-03-02T12:49:47.997Z,14
2023-03-02T12:50:55.661Z,14
2023-03-02T12:52:02.644Z,13
2023-03-02T12:53:19.644Z,13
2023-03-02T12:54:26.450Z,14
2023-03-02T12:55:33.436Z,13
2023-03-02T12:56:40.215Z,14
2023-03-02T12:57:47.138Z,13
2023-03-02T12:58:54.015Z,13
2023-03-02T13:00:00.806Z,14
2023-03-02T13:01:08.192Z,13
2023-03-02T13:02:15.885Z,13
2023-03-02T13:03:25.352Z,14
2023-03-02T13:04:33.176Z,13
2023-03-02T13:05:39.957Z,13
2023-03-02T13:06:46.803Z,13
2023-03-02T13:07:53.756Z,14
2023-03-02T13:09:04.210Z,14
2023-03-02T13:10:11.132Z,14
2023-03-02T13:11:23.218Z,14
2023-03-02T13:12:37.474Z,14
2023-03-02T13:13:44.554Z,13
2023-03-02T13:14:51.352Z,13
2023-03-02T13:15:58.277Z,13
2023-03-02T13:17:05.543Z,13
2023-03-02T13:18:17.436Z,14
2023-03-02T13:19:25.093Z,14
2023-03-02T13:20:32.040Z,14
2023-03-02T13:21:39.002Z,14
2023-03-02T13:22:45.893Z,13
2023-03-02T13:23:52.740Z,13
2023-03-02T13:25:00.532Z,14
2023-03-02T13:26:07.676Z,13
2023-03-02T13:27:24.980Z,14
2023-03-02T13:28:32.128Z,14
2023-03-02T13:29:38.951Z,13
2023-03-02T13:30:47.011Z,12
2023-03-02T13:31:54.004Z,12
2023-03-02T13:33:00.834Z,13
2023-03-02T13:34:18.032Z,13
2023-03-02T13:35:26.419Z,13
2023-03-02T13:36:32.237Z,12
2023-03-02T13:37:38.815Z,12
2023-03-02T13:38:45.490Z,12
2023-03-02T13:39:52.241Z,13
2023-03-02T13:41:02.050Z,13
2023-03-02T13:42:09.081Z,12
2023-03-02T13:43:15.910Z,12
2023-03-02T13:44:33.034Z,12
2023-03-02T13:45:39.844Z,13
2023-03-02T13:46:46.631Z,13
2023-03-02T13:47:53.425Z,12
2023-03-02T13:49:10.512Z,12
2023-03-02T13:50:07.110Z,13
2023-03-02T13:51:13.892Z,12
2023-03-02T13:52:20.947Z,13
2023-03-02T13:53:30.760Z,12
2023-03-02T13:54:37.666Z,13
2023-03-02T13:55:44.548Z,12
2023-03-02T13:56:51.423Z,13
2023-03-02T13:57:59.135Z,12
2023-03-02T13:59:07.823Z,13
2023-03-02T14:00:17.689Z,12
2023-03-02T14:01:24.695Z,12
2023-03-02T14:02:31.663Z,12
2023-03-02T14:03:38.428Z,12
2023-03-02T14:04:45.339Z,12
2023-03-02T14:05:52.024Z,12
2023-03-02T14:06:58.818Z,11
2023-03-02T14:08:05.781Z,11
2023-03-02T14:09:12.694Z,12
2023-03-02T14:10:19.506Z,12
2023-03-02T14:11:26.296Z,12
2023-03-02T14:12:33.192Z,11
2023-03-02T14:13:40.038Z,11
2023-03-02T14:14:46.910Z,12
2023-03-02T14:15:53.812Z,13
2023-03-02T14:17:00.537Z,13
2023-03-02T14:18:07.442Z,13
2023-03-02T14:19:19.469Z,13
2023-03-02T14:20:26.466Z,12
2023-03-02T14:21:33.769Z,13
2023-03-02T14:22:40.190Z,13
2023-03-02T14:23:47.144Z,14
2023-03-02T14:24:53.879Z,13
2023-03-02T14:26:01.958Z,13
2023-03-02T14:27:08.998Z,14
2023-03-02T14:28:19.954Z,13
2023-03-02T14:29:31.230Z,13
2023-03-02T14:30:38.126Z,13
2023-03-02T14:31:45.046Z,13
2023-03-02T14:35:29.587Z,13
2023-03-02T14:36:37.017Z,13
2023-03-02T14:37:44.128Z,13
2023-03-02T14:38:52.175Z,13
2023-03-02T14:40:01.246Z,13
2023-03-02T14:41:08.794Z,13
2023-03-02T14:42:18.710Z,13
2023-03-02T14:43:26.050Z,13
2023-03-02T14:44:33.370Z,13
2023-03-02T14:45:40.615Z,13
2023-03-02T14:46:47.804Z,13
2023-03-02T14:47:56.182Z,14
2023-03-02T14:49:03.341Z,14
2023-03-02T14:50:10.782Z,13
2023-03-02T14:51:18.153Z,16
2023-03-02T14:52:25.374Z,16
2023-03-02T14:53:39.255Z,16
2023-03-02T14:54:46.420Z,18
2023-03-02T14:55:56.458Z,15
2023-03-02T14:57:03.634Z,15
2023-03-02T14:58:10.846Z,15
2023-03-02T14:59:22.781Z,15
2023-03-02T15:00:30.078Z,15
2023-03-02T15:01:37.310Z,13
2023-03-02T15:02:44.628Z,13
2023-03-02T15:03:51.855Z,14
2023-03-02T15:04:59.439Z,14
2023-03-02T15:06:06.639Z,13
2023-03-02T15:07:24.631Z,14
2023-03-02T15:08:31.734Z,14
2023-03-02T15:09:39.013Z,14
2023-03-02T15:10:50.379Z,14
2023-03-02T15:11:57.693Z,14
2023-03-02T15:13:05.926Z,14
2023-03-02T15:14:13.019Z,15
2023-03-02T15:15:20.153Z,15
2023-03-02T15:16:27.357Z,16
2023-03-02T15:17:34.396Z,16
2023-03-02T15:18:41.509Z,16
2023-03-02T15:19:48.636Z,17
2023-03-02T15:20:55.867Z,17
2023-03-02T15:22:04.265Z,16
2023-03-02T15:23:11.494Z,19
2023-03-02T15:24:18.554Z,19
2023-03-02T15:25:25.898Z,20
2023-03-02T15:26:33.014Z,20
2023-03-02T15:27:40.180Z,19
2023-03-02T15:28:48.257Z,19
2023-03-02T15:29:56.858Z,18
2023-03-02T15:31:02.611Z,19
2023-03-02T15:32:12.645Z,24
2023-03-02T15:33:20.092Z,24
2023-03-02T15:34:27.500Z,33
2023-03-02T15:35:34.647Z,35
2023-03-02T15:36:43.588Z,32
2023-03-02T15:37:50.718Z,30
2023-03-02T15:38:58.804Z,29
2023-03-02T15:40:06.024Z,30
2023-03-02T15:41:13.739Z,29
2023-03-02T15:42:21.118Z,26
2023-03-02T15:43:28.415Z,25
2023-03-02T15:44:37.454Z,25
2023-03-02T15:45:44.566Z,25
2023-03-02T15:46:53.143Z,22
2023-03-02T15:48:03.453Z,22
2023-03-02T15:49:11.175Z,20
2023-03-02T15:50:18.561Z,23
2023-03-02T15:51:28.563Z,28
2023-03-02T15:52:36.031Z,28
2023-03-02T15:53:46.535Z,30
2023-03-02T15:54:53.919Z,32
2023-03-02T15:56:06.629Z,30
2023-03-02T15:57:15.603Z,31
2023-03-02T15:58:25.601Z,28
2023-03-02T15:59:33.920Z,27
2023-03-02T16:00:41.280Z,26
2023-03-02T16:01:49.800Z,25
2023-03-02T16:02:58.873Z,25
2023-03-02T16:04:09.980Z,24
2023-03-02T16:05:20.480Z,23
2023-03-02T16:06:30.792Z,21
2023-03-02T16:07:38.122Z,23
2023-03-02T16:08:45.383Z,21
2023-03-02T16:09:52.400Z,23
2023-03-02T16:10:59.586Z,23
2023-03-02T16:12:06.772Z,23
2023-03-02T16:13:13.976Z,23